Palmyra, TN (37142)

3:54 PM CST on December 21, 2014 (GMT -0600)
Round Pond | Change Station
CLOSE
Current Station
Personal Weather Station
Location: Clarksville, TN
Elevation: 531 ft
Nearby Weather Stations

Elev 531 ft 36.45 °N, 87.41 °W | Updated 15 seconds ago

Clear
Clear
50.0 °F
Feels Like 50.0 °F
N
1.2
Wind Variable Wind from SSW
Gusts 1.2 mph

Today
High -- | Low -- °F
--% Chance of Precip.
Yesterday
High -- | Low -- °F
Precip. -- in
6:57 AM 4:38 PM
Waning Crescent, 0% visible
Pressure 30.09 in
Visibility 10.0 miles
Clouds Clear
Dew Point 33 °F
Humidity 52%
Rainfall 0.03 in
Snow Depth Not available.
UV 1 out of 12
Pollen .10 out of 12
Air Quality Not available.
Flu Activity Not available.
METAR KHOP 212058Z AUTO 07006KT 10SM CLR 10/M01 A3007 RMK AO2 SLP188 T00991010

More Conditions Fewer Conditions

Pressure 30.09 in
Visibility 10.0 miles
Clouds Clear
Dew Point 33 °F
Humidity 52%
Rainfall 0.03 in
Snow Depth Not available.
UV 1 out of 12
Pollen .10 out of 12
Air Quality Not available.
Flu Activity Not available.
METAR KHOP 212058Z AUTO 07006KT 10SM CLR 10/M01 A3007 RMK AO2 SLP188 T00991010

More Conditions Fewer Conditions

10-Day Weather Forecast

Almanac

Astronomy

Dec. 21, 2014 Rise Set
Actual Time
Civil Twilight
Nautical Twilight
Astronomical Twilight
Moon
Length of Visible Light
Length of Day
Tomorrow will be .
, % of the Moon is Illuminated

Today's Extremes

State Highs State Lows

Community

WunderPhotos

Upload Photos

1,779,486 photos uploaded!

WunderBlogs® & News

Nearby

Air Quality

  Air Quality AQ Index Pollutant
Not available.

Snow Depth

Station Depth Elevation

Earthquake Activity

City Distance Mag. Time & Date
Minimum magnitude displayed is 2.5.

Coastal Water Temperatures

Place Temperature

Nearby Weather Stations